sensor_id;sensor_type;location;lat;lon;timestamp;temperature;humidity
25753;DHT22;13600;50.816;4.416;2023-12-14T00:00:25;10.40;99.90
25753;DHT22;13600;50.816;4.416;2023-12-14T00:02:51;10.40;99.90
25753;DHT22;13600;50.816;4.416;2023-12-14T00:05:17;10.40;99.90
25753;DHT22;13600;50.816;4.416;2023-12-14T00:07:42;10.40;99.90
25753;DHT22;13600;50.816;4.416;2023-12-14T00:10:08;10.30;99.90
25753;DHT22;13600;50.816;4.416;2023-12-14T00:12:34;10.10;99.90
25753;DHT22;13600;50.816;4.416;2023-12-14T00:15:00;10.20;99.90
25753;DHT22;13600;50.816;4.416;2023-12-14T00:17:25;10.30;99.90
25753;DHT22;13600;50.816;4.416;2023-12-14T00:19:51;10.40;99.90
25753;DHT22;13600;50.816;4.416;2023-12-14T00:22:16;10.30;99.90
25753;DHT22;13600;50.816;4.416;2023-12-14T00:24:42;10.30;99.90
25753;DHT22;13600;50.816;4.416;2023-12-14T00:27:08;10.40;99.90
25753;DHT22;13600;50.816;4.416;2023-12-14T00:29:33;10.50;99.90
25753;DHT22;13600;50.816;4.416;2023-12-14T00:31:59;10.70;99.90
25753;DHT22;13600;50.816;4.416;2023-12-14T00:34:25;10.70;99.90
25753;DHT22;13600;50.816;4.416;2023-12-14T00:36:50;10.60;99.90
25753;DHT22;13600;50.816;4.416;2023-12-14T00:39:16;10.50;99.90
25753;DHT22;13600;50.816;4.416;2023-12-14T00:41:42;10.30;99.90
25753;DHT22;13600;50.816;4.416;2023-12-14T00:44:07;10.30;99.90
25753;DHT22;13600;50.816;4.416;2023-12-14T00:46:33;10.20;99.90
25753;DHT22;13600;50.816;4.416;2023-12-14T00:48:59;10.10;99.90
25753;DHT22;13600;50.816;4.416;2023-12-14T00:51:25;10.10;99.90
25753;DHT22;13600;50.816;4.416;2023-12-14T00:53:50;10.10;99.90
25753;DHT22;13600;50.816;4.416;2023-12-14T00:56:16;10.10;99.90
25753;DHT22;13600;50.816;4.416;2023-12-14T00:58:42;10.30;99.90
25753;DHT22;13600;50.816;4.416;2023-12-14T01:01:07;10.50;99.90
25753;DHT22;13600;50.816;4.416;2023-12-14T01:03:33;10.40;99.90
25753;DHT22;13600;50.816;4.416;2023-12-14T01:06:00;10.20;99.90
25753;DHT22;13600;50.816;4.416;2023-12-14T01:08:25;10.30;99.90
25753;DHT22;13600;50.816;4.416;2023-12-14T01:10:51;10.30;99.90
25753;DHT22;13600;50.816;4.416;2023-12-14T01:13:17;10.20;99.90
25753;DHT22;13600;50.816;4.416;2023-12-14T01:15:43;10.30;99.90
25753;DHT22;13600;50.816;4.416;2023-12-14T01:18:08;10.20;99.90
25753;DHT22;13600;50.816;4.416;2023-12-14T01:20:34;10.20;99.90
25753;DHT22;13600;50.816;4.416;2023-12-14T01:23:00;10.20;99.90
25753;DHT22;13600;50.816;4.416;2023-12-14T01:25:25;10.30;99.90
25753;DHT22;13600;50.816;4.416;2023-12-14T01:27:51;10.30;99.90
25753;DHT22;13600;50.816;4.416;2023-12-14T01:30:17;10.40;99.90
25753;DHT22;13600;50.816;4.416;2023-12-14T01:32:42;10.40;99.90
25753;DHT22;13600;50.816;4.416;2023-12-14T01:35:08;10.40;99.90
25753;DHT22;13600;50.816;4.416;2023-12-14T01:37:34;10.40;99.90
25753;DHT22;13600;50.816;4.416;2023-12-14T01:40:00;10.30;99.90
25753;DHT22;13600;50.816;4.416;2023-12-14T01:42:25;10.30;99.90
25753;DHT22;13600;50.816;4.416;2023-12-14T01:44:51;10.40;99.90
25753;DHT22;13600;50.816;4.416;2023-12-14T01:47:17;10.30;99.90
25753;DHT22;13600;50.816;4.416;2023-12-14T01:49:43;10.30;99.90
25753;DHT22;13600;50.816;4.416;2023-12-14T01:52:08;10.30;99.90
25753;DHT22;13600;50.816;4.416;2023-12-14T01:54:34;10.30;99.90
25753;DHT22;13600;50.816;4.416;2023-12-14T01:56:59;10.30;99.90
25753;DHT22;13600;50.816;4.416;2023-12-14T01:59:25;10.20;99.90
25753;DHT22;13600;50.816;4.416;2023-12-14T02:01:55;10.30;99.90
25753;DHT22;13600;50.816;4.416;2023-12-14T02:04:23;10.20;99.90
25753;DHT22;13600;50.816;4.416;2023-12-14T02:06:49;10.20;99.90
25753;DHT22;13600;50.816;4.416;2023-12-14T02:09:15;10.30;99.90
25753;DHT22;13600;50.816;4.416;2023-12-14T02:11:42;10.10;99.90
25753;DHT22;13600;50.816;4.416;2023-12-14T02:14:11;10.00;99.90
25753;DHT22;13600;50.816;4.416;2023-12-14T02:16:37;10.00;99.90
25753;DHT22;13600;50.816;4.416;2023-12-14T02:19:04;10.00;99.90
25753;DHT22;13600;50.816;4.416;2023-12-14T02:21:30;10.20;99.90
25753;DHT22;13600;50.816;4.416;2023-12-14T02:23:55;10.10;99.90
25753;DHT22;13600;50.816;4.416;2023-12-14T02:26:22;10.00;99.90
25753;DHT22;13600;50.816;4.416;2023-12-14T02:28:48;10.10;99.90
25753;DHT22;13600;50.816;4.416;2023-12-14T02:31:14;10.00;99.90
25753;DHT22;13600;50.816;4.416;2023-12-14T02:33:40;10.00;99.90
25753;DHT22;13600;50.816;4.416;2023-12-14T02:36:06;10.30;99.90
25753;DHT22;13600;50.816;4.416;2023-12-14T02:38:31;10.40;99.90
25753;DHT22;13600;50.816;4.416;2023-12-14T02:40:57;10.20;99.90
25753;DHT22;13600;50.816;4.416;2023-12-14T02:43:23;10.00;99.90
25753;DHT22;13600;50.816;4.416;2023-12-14T02:45:49;10.00;99.90
25753;DHT22;13600;50.816;4.416;2023-12-14T02:48:16;10.00;99.90
25753;DHT22;13600;50.816;4.416;2023-12-14T02:50:42;10.00;99.90
25753;DHT22;13600;50.816;4.416;2023-12-14T02:53:07;10.10;99.90
25753;DHT22;13600;50.816;4.416;2023-12-14T02:55:33;10.10;99.90
25753;DHT22;13600;50.816;4.416;2023-12-14T02:57:59;10.10;99.90
25753;DHT22;13600;50.816;4.416;2023-12-14T03:00:25;9.80;99.90
25753;DHT22;13600;50.816;4.416;2023-12-14T03:02:50;9.70;99.90
25753;DHT22;13600;50.816;4.416;2023-12-14T03:05:16;9.80;99.90
25753;DHT22;13600;50.816;4.416;2023-12-14T03:07:41;9.80;99.90
25753;DHT22;13600;50.816;4.416;2023-12-14T03:10:08;9.90;99.90
25753;DHT22;13600;50.816;4.416;2023-12-14T03:12:33;9.90;99.90
25753;DHT22;13600;50.816;4.416;2023-12-14T03:14:59;9.80;99.90
25753;DHT22;13600;50.816;4.416;2023-12-14T03:17:25;9.70;99.90
25753;DHT22;13600;50.816;4.416;2023-12-14T03:19:51;9.70;99.90
25753;DHT22;13600;50.816;4.416;2023-12-14T03:22:16;9.90;99.90
25753;DHT22;13600;50.816;4.416;2023-12-14T03:24:42;10.00;99.90
25753;DHT22;13600;50.816;4.416;2023-12-14T03:27:08;9.80;99.90
25753;DHT22;13600;50.816;4.416;2023-12-14T03:29:33;9.90;99.90
25753;DHT22;13600;50.816;4.416;2023-12-14T03:32:00;9.90;99.90
25753;DHT22;13600;50.816;4.416;2023-12-14T03:34:26;9.90;99.90
25753;DHT22;13600;50.816;4.416;2023-12-14T03:36:52;9.80;99.90
25753;DHT22;13600;50.816;4.416;2023-12-14T03:39:18;9.70;99.90
25753;DHT22;13600;50.816;4.416;2023-12-14T03:41:44;9.60;99.90
25753;DHT22;13600;50.816;4.416;2023-12-14T03:44:10;9.60;99.90
25753;DHT22;13600;50.816;4.416;2023-12-14T03:46:35;9.50;99.90
25753;DHT22;13600;50.816;4.416;2023-12-14T03:49:02;9.50;99.90
25753;DHT22;13600;50.816;4.416;2023-12-14T03:51:28;9.30;99.90
25753;DHT22;13600;50.816;4.416;2023-12-14T03:53:54;9.10;99.90
25753;DHT22;13600;50.816;4.416;2023-12-14T03:56:19;9.10;99.90
25753;DHT22;13600;50.816;4.416;2023-12-14T03:58:45;9.10;99.90
25753;DHT22;13600;50.816;4.416;2023-12-14T04:01:18;9.00;99.90
25753;DHT22;13600;50.816;4.416;2023-12-14T04:03:45;9.40;99.90
25753;DHT22;13600;50.816;4.416;2023-12-14T04:06:12;9.60;99.90
25753;DHT22;13600;50.816;4.416;2023-12-14T04:08:38;9.50;99.90
25753;DHT22;13600;50.816;4.416;2023-12-14T04:11:05;9.40;99.90
25753;DHT22;13600;50.816;4.416;2023-12-14T04:13:31;9.20;99.90
25753;DHT22;13600;50.816;4.416;2023-12-14T04:15:57;9.30;99.90
25753;DHT22;13600;50.816;4.416;2023-12-14T04:18:24;9.10;99.90
25753;DHT22;13600;50.816;4.416;2023-12-14T04:20:50;9.00;99.90
25753;DHT22;13600;50.816;4.416;2023-12-14T04:23:16;8.80;99.90
25753;DHT22;13600;50.816;4.416;2023-12-14T04:25:42;8.70;99.90
25753;DHT22;13600;50.816;4.416;2023-12-14T04:28:09;8.80;99.90
25753;DHT22;13600;50.816;4.416;2023-12-14T04:30:35;8.60;99.90
25753;DHT22;13600;50.816;4.416;2023-12-14T04:33:00;8.40;99.90
25753;DHT22;13600;50.816;4.416;2023-12-14T04:35:27;8.50;99.90
25753;DHT22;13600;50.816;4.416;2023-12-14T04:37:53;8.80;99.90
25753;DHT22;13600;50.816;4.416;2023-12-14T04:40:18;8.60;99.90
25753;DHT22;13600;50.816;4.416;2023-12-14T04:42:45;8.60;99.90
25753;DHT22;13600;50.816;4.416;2023-12-14T04:45:11;8.40;99.90
25753;DHT22;13600;50.816;4.416;2023-12-14T04:47:38;8.40;99.90
25753;DHT22;13600;50.816;4.416;2023-12-14T04:50:04;8.30;99.90
25753;DHT22;13600;50.816;4.416;2023-12-14T04:52:33;8.30;99.90
25753;DHT22;13600;50.816;4.416;2023-12-14T04:54:59;8.30;99.90
25753;DHT22;13600;50.816;4.416;2023-12-14T04:57:25;8.50;99.90
25753;DHT22;13600;50.816;4.416;2023-12-14T04:59:53;8.70;99.90
25753;DHT22;13600;50.816;4.416;2023-12-14T05:02:20;8.60;99.90
25753;DHT22;13600;50.816;4.416;2023-12-14T05:04:45;8.50;99.90
25753;DHT22;13600;50.816;4.416;2023-12-14T05:07:11;8.50;99.90
25753;DHT22;13600;50.816;4.416;2023-12-14T05:09:36;8.60;99.90
25753;DHT22;13600;50.816;4.416;2023-12-14T05:12:03;8.70;99.90
25753;DHT22;13600;50.816;4.416;2023-12-14T05:14:29;8.70;99.90
25753;DHT22;13600;50.816;4.416;2023-12-14T05:16:55;8.80;99.90
25753;DHT22;13600;50.816;4.416;2023-12-14T05:19:20;8.80;99.90
25753;DHT22;13600;50.816;4.416;2023-12-14T05:21:46;8.70;99.90
25753;DHT22;13600;50.816;4.416;2023-12-14T05:24:12;8.60;99.90
25753;DHT22;13600;50.816;4.416;2023-12-14T05:26:38;8.60;99.90
25753;DHT22;13600;50.816;4.416;2023-12-14T05:29:03;8.50;99.90
25753;DHT22;13600;50.816;4.416;2023-12-14T05:31:29;8.40;99.90
25753;DHT22;13600;50.816;4.416;2023-12-14T05:33:55;8.40;99.90
25753;DHT22;13600;50.816;4.416;2023-12-14T05:36:20;8.40;99.90
25753;DHT22;13600;50.816;4.416;2023-12-14T05:38:46;8.30;99.90
25753;DHT22;13600;50.816;4.416;2023-12-14T05:41:12;8.30;99.90
25753;DHT22;13600;50.816;4.416;2023-12-14T05:43:38;8.20;99.90
25753;DHT22;13600;50.816;4.416;2023-12-14T05:46:04;8.40;99.90
25753;DHT22;13600;50.816;4.416;2023-12-14T05:48:29;8.70;99.90
25753;DHT22;13600;50.816;4.416;2023-12-14T05:50:56;8.80;99.90
25753;DHT22;13600;50.816;4.416;2023-12-14T05:53:22;8.70;99.90
25753;DHT22;13600;50.816;4.416;2023-12-14T05:55:48;8.50;99.90
25753;DHT22;13600;50.816;4.416;2023-12-14T05:58:13;8.40;99.90
25753;DHT22;13600;50.816;4.416;2023-12-14T06:00:40;8.40;99.90
25753;DHT22;13600;50.816;4.416;2023-12-14T06:03:06;8.60;99.90
25753;DHT22;13600;50.816;4.416;2023-12-14T06:05:32;8.50;99.90
25753;DHT22;13600;50.816;4.416;2023-12-14T06:07:57;8.40;99.90
25753;DHT22;13600;50.816;4.416;2023-12-14T06:10:23;8.50;99.90
25753;DHT22;13600;50.816;4.416;2023-12-14T06:12:49;8.50;99.90
25753;DHT22;13600;50.816;4.416;2023-12-14T06:15:15;8.50;99.90
25753;DHT22;13600;50.816;4.416;2023-12-14T06:17:40;8.20;99.90
25753;DHT22;13600;50.816;4.416;2023-12-14T06:20:09;8.20;99.90
25753;DHT22;13600;50.816;4.416;2023-12-14T06:22:38;8.50;99.90
25753;DHT22;13600;50.816;4.416;2023-12-14T06:25:04;8.70;99.90
25753;DHT22;13600;50.816;4.416;2023-12-14T06:27:30;8.70;99.90
25753;DHT22;13600;50.816;4.416;2023-12-14T06:29:56;8.50;99.90
25753;DHT22;13600;50.816;4.416;2023-12-14T06:32:21;8.50;99.90
25753;DHT22;13600;50.816;4.416;2023-12-14T06:34:50;8.50;99.90
25753;DHT22;13600;50.816;4.416;2023-12-14T06:37:16;8.40;99.90
25753;DHT22;13600;50.816;4.416;2023-12-14T06:39:42;8.50;99.90
25753;DHT22;13600;50.816;4.416;2023-12-14T06:42:07;8.60;99.90
25753;DHT22;13600;50.816;4.416;2023-12-14T06:44:33;8.60;99.90
25753;DHT22;13600;50.816;4.416;2023-12-14T06:46:59;8.40;99.90
25753;DHT22;13600;50.816;4.416;2023-12-14T06:49:25;8.30;99.90
25753;DHT22;13600;50.816;4.416;2023-12-14T06:51:51;8.50;99.90
25753;DHT22;13600;50.816;4.416;2023-12-14T06:54:16;8.50;99.90
25753;DHT22;13600;50.816;4.416;2023-12-14T06:56:42;8.40;99.90
25753;DHT22;13600;50.816;4.416;2023-12-14T06:59:08;8.20;99.90
25753;DHT22;13600;50.816;4.416;2023-12-14T07:01:34;8.00;99.90
25753;DHT22;13600;50.816;4.416;2023-12-14T07:03:59;8.20;99.90
25753;DHT22;13600;50.816;4.416;2023-12-14T07:06:26;8.20;99.90
25753;DHT22;13600;50.816;4.416;2023-12-14T07:08:52;8.30;99.90
25753;DHT22;13600;50.816;4.416;2023-12-14T07:11:17;8.40;99.90
25753;DHT22;13600;50.816;4.416;2023-12-14T07:13:44;8.40;99.90
25753;DHT22;13600;50.816;4.416;2023-12-14T07:16:12;8.40;99.90
25753;DHT22;13600;50.816;4.416;2023-12-14T07:18:40;8.60;99.90
25753;DHT22;13600;50.816;4.416;2023-12-14T07:21:07;8.50;99.90
25753;DHT22;13600;50.816;4.416;2023-12-14T07:23:34;8.20;99.90
25753;DHT22;13600;50.816;4.416;2023-12-14T07:25:59;8.20;99.90
25753;DHT22;13600;50.816;4.416;2023-12-14T07:28:25;8.30;99.90
25753;DHT22;13600;50.816;4.416;2023-12-14T07:30:53;8.20;99.90
25753;DHT22;13600;50.816;4.416;2023-12-14T07:33:19;8.10;99.90
25753;DHT22;13600;50.816;4.416;2023-12-14T07:35:46;7.90;99.90
25753;DHT22;13600;50.816;4.416;2023-12-14T07:38:12;7.90;99.90
25753;DHT22;13600;50.816;4.416;2023-12-14T07:40:38;7.90;99.90
25753;DHT22;13600;50.816;4.416;2023-12-14T07:43:06;7.90;99.90
25753;DHT22;13600;50.816;4.416;2023-12-14T07:45:31;8.00;99.90
25753;DHT22;13600;50.816;4.416;2023-12-14T07:47:57;7.90;99.90
25753;DHT22;13600;50.816;4.416;2023-12-14T07:50:23;7.80;99.90
25753;DHT22;13600;50.816;4.416;2023-12-14T07:52:50;7.90;99.90
25753;DHT22;13600;50.816;4.416;2023-12-14T07:55:16;8.00;99.90
25753;DHT22;13600;50.816;4.416;2023-12-14T07:57:42;8.10;99.90
25753;DHT22;13600;50.816;4.416;2023-12-14T08:00:09;8.20;99.90
25753;DHT22;13600;50.816;4.416;2023-12-14T08:02:36;8.10;99.90
25753;DHT22;13600;50.816;4.416;2023-12-14T08:05:02;8.30;99.90
25753;DHT22;13600;50.816;4.416;2023-12-14T08:07:27;8.30;99.90
25753;DHT22;13600;50.816;4.416;2023-12-14T08:09:55;8.40;99.90
25753;DHT22;13600;50.816;4.416;2023-12-14T08:12:24;8.50;99.90
25753;DHT22;13600;50.816;4.416;2023-12-14T08:14:51;8.50;99.90
25753;DHT22;13600;50.816;4.416;2023-12-14T08:17:17;8.70;99.90
25753;DHT22;13600;50.816;4.416;2023-12-14T08:19:43;8.70;99.90
25753;DHT22;13600;50.816;4.416;2023-12-14T08:22:10;9.00;99.90
25753;DHT22;13600;50.816;4.416;2023-12-14T08:24:38;8.80;99.90
25753;DHT22;13600;50.816;4.416;2023-12-14T08:27:04;8.80;99.90
25753;DHT22;13600;50.816;4.416;2023-12-14T08:29:30;8.90;99.90
25753;DHT22;13600;50.816;4.416;2023-12-14T08:31:55;9.00;99.90
25753;DHT22;13600;50.816;4.416;2023-12-14T08:34:24;8.60;99.90
25753;DHT22;13600;50.816;4.416;2023-12-14T08:36:49;8.60;99.90
25753;DHT22;13600;50.816;4.416;2023-12-14T08:39:15;8.40;99.90
25753;DHT22;13600;50.816;4.416;2023-12-14T08:41:41;8.50;99.90
25753;DHT22;13600;50.816;4.416;2023-12-14T08:44:07;8.50;99.90
25753;DHT22;13600;50.816;4.416;2023-12-14T08:46:44;8.70;99.90
25753;DHT22;13600;50.816;4.416;2023-12-14T08:49:11;8.60;99.90
25753;DHT22;13600;50.816;4.416;2023-12-14T08:51:37;8.50;99.90
25753;DHT22;13600;50.816;4.416;2023-12-14T08:54:05;8.50;99.90
25753;DHT22;13600;50.816;4.416;2023-12-14T08:56:30;8.50;99.90
25753;DHT22;13600;50.816;4.416;2023-12-14T08:58:56;8.50;99.90
25753;DHT22;13600;50.816;4.416;2023-12-14T09:01:23;8.40;99.90
25753;DHT22;13600;50.816;4.416;2023-12-14T09:03:49;8.40;99.90
25753;DHT22;13600;50.816;4.416;2023-12-14T09:06:16;8.30;99.90
25753;DHT22;13600;50.816;4.416;2023-12-14T09:08:45;8.40;99.90
25753;DHT22;13600;50.816;4.416;2023-12-14T09:11:11;8.50;99.90
25753;DHT22;13600;50.816;4.416;2023-12-14T09:13:37;8.70;99.90
25753;DHT22;13600;50.816;4.416;2023-12-14T09:16:04;8.80;99.90
25753;DHT22;13600;50.816;4.416;2023-12-14T09:18:30;9.10;99.90
25753;DHT22;13600;50.816;4.416;2023-12-14T09:20:56;9.20;99.90
25753;DHT22;13600;50.816;4.416;2023-12-14T09:23:21;9.20;99.90
25753;DHT22;13600;50.816;4.416;2023-12-14T09:25:47;9.10;99.90
25753;DHT22;13600;50.816;4.416;2023-12-14T09:28:12;9.30;99.90
25753;DHT22;13600;50.816;4.416;2023-12-14T09:30:39;9.30;99.90
25753;DHT22;13600;50.816;4.416;2023-12-14T09:33:05;9.60;99.90
25753;DHT22;13600;50.816;4.416;2023-12-14T09:35:34;9.70;99.90
25753;DHT22;13600;50.816;4.416;2023-12-14T09:38:00;9.60;99.90
25753;DHT22;13600;50.816;4.416;2023-12-14T09:40:26;9.70;99.90
25753;DHT22;13600;50.816;4.416;2023-12-14T09:42:52;9.90;99.90
25753;DHT22;13600;50.816;4.416;2023-12-14T09:45:20;9.80;99.90
25753;DHT22;13600;50.816;4.416;2023-12-14T09:47:51;9.90;99.90
25753;DHT22;13600;50.816;4.416;2023-12-14T09:50:24;10.00;99.90
25753;DHT22;13600;50.816;4.416;2023-12-14T09:52:51;9.80;99.90
25753;DHT22;13600;50.816;4.416;2023-12-14T09:55:18;9.90;99.90
25753;DHT22;13600;50.816;4.416;2023-12-14T09:57:44;10.10;99.90
25753;DHT22;13600;50.816;4.416;2023-12-14T10:00:10;10.30;99.90
25753;DHT22;13600;50.816;4.416;2023-12-14T10:02:37;10.10;99.90
25753;DHT22;13600;50.816;4.416;2023-12-14T10:05:03;10.40;99.90
25753;DHT22;13600;50.816;4.416;2023-12-14T10:07:31;10.30;99.90
25753;DHT22;13600;50.816;4.416;2023-12-14T10:10:12;10.00;99.90
25753;DHT22;13600;50.816;4.416;2023-12-14T10:12:53;9.90;99.90
25753;DHT22;13600;50.816;4.416;2023-12-14T10:15:18;9.60;99.90
25753;DHT22;13600;50.816;4.416;2023-12-14T10:17:44;9.70;99.90
25753;DHT22;13600;50.816;4.416;2023-12-14T10:20:19;9.60;99.90
25753;DHT22;13600;50.816;4.416;2023-12-14T10:22:49;9.30;99.90
25753;DHT22;13600;50.816;4.416;2023-12-14T10:25:14;9.40;99.90
25753;DHT22;13600;50.816;4.416;2023-12-14T10:27:40;9.40;99.90
25753;DHT22;13600;50.816;4.416;2023-12-14T10:30:09;9.60;99.90
25753;DHT22;13600;50.816;4.416;2023-12-14T10:32:38;9.60;99.90
25753;DHT22;13600;50.816;4.416;2023-12-14T10:35:04;9.80;99.90
25753;DHT22;13600;50.816;4.416;2023-12-14T10:37:31;9.90;99.90
25753;DHT22;13600;50.816;4.416;2023-12-14T10:39:59;10.10;99.90
25753;DHT22;13600;50.816;4.416;2023-12-14T10:42:26;10.10;99.90
25753;DHT22;13600;50.816;4.416;2023-12-14T10:44:53;10.20;99.90
25753;DHT22;13600;50.816;4.416;2023-12-14T10:47:20;10.10;99.90
25753;DHT22;13600;50.816;4.416;2023-12-14T10:49:50;10.10;99.90
25753;DHT22;13600;50.816;4.416;2023-12-14T10:52:17;10.00;99.90
25753;DHT22;13600;50.816;4.416;2023-12-14T10:54:44;10.00;99.90
25753;DHT22;13600;50.816;4.416;2023-12-14T10:57:11;10.10;99.90
25753;DHT22;13600;50.816;4.416;2023-12-14T10:59:37;10.00;99.90
25753;DHT22;13600;50.816;4.416;2023-12-14T11:02:08;10.10;99.90
25753;DHT22;13600;50.816;4.416;2023-12-14T11:04:57;10.00;99.90
25753;DHT22;13600;50.816;4.416;2023-12-14T11:07:46;10.10;99.90
25753;DHT22;13600;50.816;4.416;2023-12-14T11:10:13;10.10;99.90
25753;DHT22;13600;50.816;4.416;2023-12-14T11:13:11;10.20;99.90
25753;DHT22;13600;50.816;4.416;2023-12-14T11:15:38;10.50;99.90
25753;DHT22;13600;50.816;4.416;2023-12-14T11:23:32;10.90;99.90
25753;DHT22;13600;50.816;4.416;2023-12-14T11:26:06;10.60;99.90
25753;DHT22;13600;50.816;4.416;2023-12-14T11:28:36;10.50;99.90
25753;DHT22;13600;50.816;4.416;2023-12-14T11:31:02;10.40;99.90
25753;DHT22;13600;50.816;4.416;2023-12-14T11:33:33;10.40;99.90
25753;DHT22;13600;50.816;4.416;2023-12-14T11:36:01;10.60;99.90
25753;DHT22;13600;50.816;4.416;2023-12-14T11:38:27;10.80;99.90
25753;DHT22;13600;50.816;4.416;2023-12-14T11:40:54;10.90;99.90
25753;DHT22;13600;50.816;4.416;2023-12-14T11:43:20;10.80;99.90
25753;DHT22;13600;50.816;4.416;2023-12-14T11:45:47;10.80;99.90
25753;DHT22;13600;50.816;4.416;2023-12-14T11:48:13;10.60;99.90
25753;DHT22;13600;50.816;4.416;2023-12-14T11:50:40;10.50;99.90
25753;DHT22;13600;50.816;4.416;2023-12-14T11:53:07;10.30;99.90
25753;DHT22;13600;50.816;4.416;2023-12-14T11:55:37;10.40;99.90
25753;DHT22;13600;50.816;4.416;2023-12-14T11:58:04;10.30;99.90
25753;DHT22;13600;50.816;4.416;2023-12-14T12:00:31;10.30;99.90
25753;DHT22;13600;50.816;4.416;2023-12-14T12:03:19;10.30;99.90
25753;DHT22;13600;50.816;4.416;2023-12-14T12:05:50;10.20;99.90
25753;DHT22;13600;50.816;4.416;2023-12-14T12:08:18;10.10;99.90
25753;DHT22;13600;50.816;4.416;2023-12-14T12:10:45;10.30;99.90
25753;DHT22;13600;50.816;4.416;2023-12-14T12:13:17;10.20;99.90
25753;DHT22;13600;50.816;4.416;2023-12-14T12:15:44;10.30;99.90
25753;DHT22;13600;50.816;4.416;2023-12-14T12:18:17;10.30;99.90
25753;DHT22;13600;50.816;4.416;2023-12-14T12:20:42;10.20;99.90
25753;DHT22;13600;50.816;4.416;2023-12-14T12:23:08;10.30;99.90
25753;DHT22;13600;50.816;4.416;2023-12-14T12:25:35;10.30;99.90
25753;DHT22;13600;50.816;4.416;2023-12-14T12:28:02;10.40;99.90
25753;DHT22;13600;50.816;4.416;2023-12-14T12:30:29;10.60;99.90
25753;DHT22;13600;50.816;4.416;2023-12-14T12:32:54;10.30;99.90
25753;DHT22;13600;50.816;4.416;2023-12-14T12:35:22;10.20;99.90
25753;DHT22;13600;50.816;4.416;2023-12-14T12:37:48;10.10;99.90
25753;DHT22;13600;50.816;4.416;2023-12-14T12:40:19;10.00;99.90
25753;DHT22;13600;50.816;4.416;2023-12-14T12:42:46;9.90;99.90
25753;DHT22;13600;50.816;4.416;2023-12-14T12:45:15;10.00;99.90
25753;DHT22;13600;50.816;4.416;2023-12-14T12:47:42;10.00;99.90
25753;DHT22;13600;50.816;4.416;2023-12-14T12:50:08;10.00;99.90
25753;DHT22;13600;50.816;4.416;2023-12-14T12:52:33;9.90;99.90
25753;DHT22;13600;50.816;4.416;2023-12-14T12:54:59;9.90;99.90
25753;DHT22;13600;50.816;4.416;2023-12-14T12:57:25;9.90;99.90
25753;DHT22;13600;50.816;4.416;2023-12-14T12:59:52;10.10;99.90
25753;DHT22;13600;50.816;4.416;2023-12-14T13:02:18;10.10;99.90
25753;DHT22;13600;50.816;4.416;2023-12-14T13:04:43;10.20;99.90
25753;DHT22;13600;50.816;4.416;2023-12-14T13:07:09;10.20;99.90
25753;DHT22;13600;50.816;4.416;2023-12-14T13:09:36;10.10;99.90
25753;DHT22;13600;50.816;4.416;2023-12-14T13:12:03;10.20;99.90
25753;DHT22;13600;50.816;4.416;2023-12-14T13:14:29;10.30;99.90
25753;DHT22;13600;50.816;4.416;2023-12-14T13:16:56;10.30;99.90
25753;DHT22;13600;50.816;4.416;2023-12-14T13:19:24;10.20;99.90
25753;DHT22;13600;50.816;4.416;2023-12-14T13:21:51;10.10;99.90
25753;DHT22;13600;50.816;4.416;2023-12-14T13:24:17;10.10;99.90
25753;DHT22;13600;50.816;4.416;2023-12-14T13:26:42;10.10;99.90
25753;DHT22;13600;50.816;4.416;2023-12-14T13:29:08;10.10;99.90
25753;DHT22;13600;50.816;4.416;2023-12-14T13:31:34;10.30;99.90
25753;DHT22;13600;50.816;4.416;2023-12-14T13:33:59;10.30;99.90
25753;DHT22;13600;50.816;4.416;2023-12-14T13:36:25;10.20;99.90
25753;DHT22;13600;50.816;4.416;2023-12-14T13:38:51;10.10;99.90
25753;DHT22;13600;50.816;4.416;2023-12-14T13:41:16;10.10;99.90
25753;DHT22;13600;50.816;4.416;2023-12-14T13:43:42;10.10;99.90
25753;DHT22;13600;50.816;4.416;2023-12-14T13:46:09;10.20;99.90
25753;DHT22;13600;50.816;4.416;2023-12-14T13:48:35;10.30;99.90
25753;DHT22;13600;50.816;4.416;2023-12-14T13:51:00;10.30;99.90
25753;DHT22;13600;50.816;4.416;2023-12-14T13:53:26;10.20;99.90
25753;DHT22;13600;50.816;4.416;2023-12-14T13:55:52;10.40;99.90
25753;DHT22;13600;50.816;4.416;2023-12-14T13:58:18;10.40;99.90
25753;DHT22;13600;50.816;4.416;2023-12-14T14:00:44;10.30;99.90
25753;DHT22;13600;50.816;4.416;2023-12-14T14:03:09;10.20;99.90
25753;DHT22;13600;50.816;4.416;2023-12-14T14:05:35;10.20;99.90
25753;DHT22;13600;50.816;4.416;2023-12-14T14:08:02;10.10;99.90
25753;DHT22;13600;50.816;4.416;2023-12-14T14:10:30;10.00;99.90
25753;DHT22;13600;50.816;4.416;2023-12-14T14:12:56;10.00;99.90
25753;DHT22;13600;50.816;4.416;2023-12-14T14:15:22;10.10;99.90
25753;DHT22;13600;50.816;4.416;2023-12-14T14:17:47;10.10;99.90
25753;DHT22;13600;50.816;4.416;2023-12-14T14:20:17;10.00;99.90
25753;DHT22;13600;50.816;4.416;2023-12-14T14:22:42;10.00;99.90
25753;DHT22;13600;50.816;4.416;2023-12-14T14:25:08;10.10;99.90
25753;DHT22;13600;50.816;4.416;2023-12-14T14:27:35;10.40;99.90
25753;DHT22;13600;50.816;4.416;2023-12-14T14:30:01;10.40;99.90
25753;DHT22;13600;50.816;4.416;2023-12-14T14:32:26;10.50;99.90
25753;DHT22;13600;50.816;4.416;2023-12-14T14:34:52;10.50;99.90
25753;DHT22;13600;50.816;4.416;2023-12-14T14:37:20;10.50;99.90
25753;DHT22;13600;50.816;4.416;2023-12-14T14:39:46;10.40;99.90
25753;DHT22;13600;50.816;4.416;2023-12-14T14:42:13;10.40;99.90
25753;DHT22;13600;50.816;4.416;2023-12-14T14:44:39;10.30;99.90
25753;DHT22;13600;50.816;4.416;2023-12-14T14:47:05;10.30;99.90
25753;DHT22;13600;50.816;4.416;2023-12-14T14:49:31;10.30;99.90
25753;DHT22;13600;50.816;4.416;2023-12-14T14:51:57;10.40;99.90
25753;DHT22;13600;50.816;4.416;2023-12-14T14:54:23;10.50;99.90
25753;DHT22;13600;50.816;4.416;2023-12-14T14:56:48;10.60;99.90
25753;DHT22;13600;50.816;4.416;2023-12-14T14:59:14;10.40;99.90
25753;DHT22;13600;50.816;4.416;2023-12-14T15:01:41;10.50;99.90
25753;DHT22;13600;50.816;4.416;2023-12-14T15:04:07;10.30;99.90
25753;DHT22;13600;50.816;4.416;2023-12-14T15:06:32;10.30;99.90
25753;DHT22;13600;50.816;4.416;2023-12-14T15:08:59;10.30;99.90
25753;DHT22;13600;50.816;4.416;2023-12-14T15:11:25;10.30;99.90
25753;DHT22;13600;50.816;4.416;2023-12-14T15:13:50;10.10;99.90
25753;DHT22;13600;50.816;4.416;2023-12-14T15:16:17;10.00;99.90
25753;DHT22;13600;50.816;4.416;2023-12-14T15:18:43;10.00;99.90
25753;DHT22;13600;50.816;4.416;2023-12-14T15:21:09;9.90;99.90
25753;DHT22;13600;50.816;4.416;2023-12-14T15:23:35;10.10;99.90
25753;DHT22;13600;50.816;4.416;2023-12-14T15:26:00;10.10;99.90
25753;DHT22;13600;50.816;4.416;2023-12-14T15:28:26;10.20;99.90
25753;DHT22;13600;50.816;4.416;2023-12-14T15:30:52;10.00;99.90
25753;DHT22;13600;50.816;4.416;2023-12-14T15:33:18;9.90;99.90
25753;DHT22;13600;50.816;4.416;2023-12-14T15:35:43;9.80;99.90
25753;DHT22;13600;50.816;4.416;2023-12-14T15:38:09;9.80;99.90